Time;durP1;ratioP1;P1;durP2;ratioP2;P2;SDS_P1;SDS_P2;PMS_P1;PMS_P2;Temp;Humidity;BMP_temperature;BMP_pressure;BME280_temperature;BME280_humidity;BME280_pressure;Samples;Min_cycle;Max_cycle;Signal;HPM_P1;HPM_P2
2022/07/11 00:02:19;;;;;;;0.20;0.10;;;;;;;;;;6102360;23;20024;-88
2022/07/11 00:04:48;;;;;;;0.20;0.10;;;;;;;;;;6151661;23;20444;-87
2022/07/11 00:07:14;;;;;;;0.20;0.10;;;;;;;;;;6127546;23;20013;-89
2022/07/11 00:09:41;;;;;;;0.20;0.10;;;;;;;;;;6100265;23;20068;-88
2022/07/11 00:12:08;;;;;;;0.20;0.10;;;;;;;;;;6127146;23;20035;-89
2022/07/11 00:14:34;;;;;;;0.20;0.10;;;;;;;;;;6123410;23;20075;-89
2022/07/11 00:17:00;;;;;;;0.20;0.10;;;;;;;;;;6129335;23;20009;-89
2022/07/11 00:19:27;;;;;;;0.20;0.10;;;;;;;;;;6101340;23;20445;-89
2022/07/11 00:21:53;;;;;;;0.20;0.10;;;;;;;;;;6128552;23;20013;-88
2022/07/11 00:24:24;;;;;;;0.20;0.10;;;;;;;;;;6127403;23;20048;-92
2022/07/11 00:26:50;;;;;;;0.20;0.10;;;;;;;;;;6130051;23;20071;-89
2022/07/11 00:29:16;;;;;;;0.20;0.10;;;;;;;;;;6131782;23;20043;-92
2022/07/11 00:31:43;;;;;;;0.20;0.10;;;;;;;;;;6128984;23;20013;-89
2022/07/11 00:34:12;;;;;;;0.20;0.10;;;;;;;;;;6131101;23;20013;-90
2022/07/11 00:36:38;;;;;;;0.20;0.10;;;;;;;;;;6130691;23;20020;-88
2022/07/11 00:39:07;;;;;;;0.20;0.10;;;;;;;;;;6102786;23;20009;-90
2022/07/11 00:41:34;;;;;;;0.20;0.10;;;;;;;;;;6124390;23;20009;-91
2022/07/11 00:44:03;;;;;;;0.20;0.10;;;;;;;;;;6126976;23;20327;-90
2022/07/11 00:46:30;;;;;;;0.20;0.10;;;;;;;;;;6102530;23;20013;-88
2022/07/11 00:49:00;;;;;;;0.20;0.10;;;;;;;;;;6126779;23;20015;-89
2022/07/11 00:51:27;;;;;;;0.20;0.10;;;;;;;;;;6127332;23;20465;-88
2022/07/11 00:53:54;;;;;;;0.20;0.10;;;;;;;;;;6127419;23;20095;-89
2022/07/11 00:56:21;;;;;;;0.20;0.10;;;;;;;;;;6129447;23;20009;-90
2022/07/11 00:58:50;;;;;;;0.20;0.10;;;;;;;;;;6129678;23;20012;-88
2022/07/11 01:01:17;;;;;;;0.20;0.00;;;;;;;;;;6148917;23;20024;-89
2022/07/11 01:03:46;;;;;;;0.20;0.10;;;;;;;;;;6126054;23;20104;-91
2022/07/11 01:06:15;;;;;;;0.20;0.10;;;;;;;;;;6130871;23;20437;-90
2022/07/11 01:08:44;;;;;;;0.20;0.10;;;;;;;;;;6128768;23;20009;-92
2022/07/11 01:11:32;;;;;;;0.20;0.10;;;;;;;;;;6126387;23;20021;-90
2022/07/11 01:14:03;;;;;;;0.20;0.10;;;;;;;;;;6150584;23;20430;-89
2022/07/11 01:16:30;;;;;;;0.20;0.10;;;;;;;;;;6103552;23;20767;-88
2022/07/11 01:18:56;;;;;;;0.20;0.10;;;;;;;;;;6151374;23;20886;-90
2022/07/11 01:21:38;;;;;;;0.20;0.10;;;;;;;;;;6103110;23;20009;-92
2022/07/11 01:24:05;;;;;;;0.20;0.10;;;;;;;;;;6129030;23;20051;-89
2022/07/11 01:26:34;;;;;;;0.20;0.10;;;;;;;;;;6130854;23;20024;-90
2022/07/11 01:29:10;;;;;;;0.20;0.10;;;;;;;;;;6110712;23;20012;-90
2022/07/11 01:31:41;;;;;;;0.20;0.10;;;;;;;;;;6108310;23;20016;-90
2022/07/11 01:34:07;;;;;;;0.20;0.10;;;;;;;;;;6128763;23;20013;-88
2022/07/11 01:36:33;;;;;;;0.20;0.10;;;;;;;;;;6129159;23;20013;-89
2022/07/11 01:39:03;;;;;;;0.20;0.10;;;;;;;;;;6128239;23;20390;-91
2022/07/11 01:41:29;;;;;;;0.20;0.10;;;;;;;;;;6103903;23;20009;-89
2022/07/11 01:44:01;;;;;;;0.20;0.10;;;;;;;;;;6124769;23;20432;-92
2022/07/11 01:46:27;;;;;;;0.20;0.20;;;;;;;;;;6126576;23;20009;-88
2022/07/11 01:49:00;;;;;;;0.20;0.10;;;;;;;;;;6126142;23;20064;-92
2022/07/11 01:51:26;;;;;;;0.20;0.10;;;;;;;;;;6127846;23;20095;-92
2022/07/11 01:53:54;;;;;;;0.20;0.08;;;;;;;;;;6128104;23;20463;-91
2022/07/11 01:56:20;;;;;;;0.20;0.10;;;;;;;;;;6129991;23;20020;-91
2022/07/11 01:58:47;;;;;;;0.20;0.10;;;;;;;;;;6130125;23;20581;-90
2022/07/11 02:01:16;;;;;;;0.20;0.10;;;;;;;;;;6129285;23;20009;-90
2022/07/11 02:03:45;;;;;;;0.20;0.10;;;;;;;;;;6129107;23;20041;-89
2022/07/11 02:06:11;;;;;;;0.20;0.10;;;;;;;;;;6153549;23;20013;-91
2022/07/11 02:08:37;;;;;;;0.20;0.10;;;;;;;;;;6129018;23;20009;-90
2022/07/11 02:11:07;;;;;;;0.20;0.10;;;;;;;;;;6104025;23;20097;-93
2022/07/11 02:13:33;;;;;;;0.20;0.10;;;;;;;;;;6130495;23;20012;-89
2022/07/11 02:16:01;;;;;;;0.20;0.10;;;;;;;;;;6126251;23;20345;-89
2022/07/11 02:18:27;;;;;;;0.20;0.10;;;;;;;;;;6130301;23;20009;-88
2022/07/11 02:20:53;;;;;;;0.20;0.10;;;;;;;;;;6104364;23;20377;-89
2022/07/11 02:23:20;;;;;;;0.20;0.10;;;;;;;;;;6128138;23;20017;-87
2022/07/11 02:25:47;;;;;;;0.20;0.10;;;;;;;;;;6126293;23;20060;-88
2022/07/11 02:28:20;;;;;;;0.20;0.10;;;;;;;;;;6102613;23;20412;-88
2022/07/11 02:30:49;;;;;;;0.20;0.10;;;;;;;;;;6127728;23;20067;-90
2022/07/11 02:33:15;;;;;;;0.20;0.10;;;;;;;;;;6127339;23;20009;-90
2022/07/11 02:35:45;;;;;;;0.20;0.10;;;;;;;;;;6126596;23;20013;-91
2022/07/11 02:38:11;;;;;;;0.20;0.10;;;;;;;;;;6126144;23;20092;-87
2022/07/11 02:40:37;;;;;;;0.20;0.10;;;;;;;;;;6126238;23;20413;-89
2022/07/11 02:43:03;;;;;;;0.20;0.10;;;;;;;;;;6106527;23;20377;-89
2022/07/11 02:45:30;;;;;;;0.20;0.10;;;;;;;;;;6126581;23;20074;-91
2022/07/11 02:47:58;;;;;;;0.20;0.10;;;;;;;;;;6128464;23;20016;-90
2022/07/11 02:50:24;;;;;;;0.20;0.10;;;;;;;;;;6103972;23;20042;-90
2022/07/11 02:52:53;;;;;;;0.20;0.10;;;;;;;;;;6102541;23;20079;-92
2022/07/11 02:55:19;;;;;;;0.20;0.10;;;;;;;;;;6103074;23;20599;-87
2022/07/11 02:57:54;;;;;;;0.20;0.10;;;;;;;;;;6106047;23;20112;-92
2022/07/11 03:00:20;;;;;;;0.20;0.10;;;;;;;;;;6129703;23;20021;-90
2022/07/11 03:02:49;;;;;;;0.20;0.10;;;;;;;;;;6130593;23;20024;-89
2022/07/11 03:05:15;;;;;;;0.20;0.10;;;;;;;;;;6107107;23;20017;-90
2022/07/11 03:07:45;;;;;;;0.20;0.10;;;;;;;;;;6125745;23;20013;-90
2022/07/11 03:10:14;;;;;;;0.20;0.10;;;;;;;;;;6103533;23;20453;-89
2022/07/11 03:12:41;;;;;;;0.20;0.10;;;;;;;;;;6128006;23;20013;-90
2022/07/11 03:15:10;;;;;;;0.20;0.10;;;;;;;;;;6103022;23;20013;-89
2022/07/11 03:17:37;;;;;;;0.20;0.10;;;;;;;;;;6129112;23;20017;-91
2022/07/11 03:20:08;;;;;;;0.20;0.10;;;;;;;;;;6130501;23;20161;-91
2022/07/11 03:22:34;;;;;;;0.20;0.10;;;;;;;;;;6130176;23;20335;-92
2022/07/11 03:25:03;;;;;;;0.20;0.08;;;;;;;;;;6129301;23;20059;-87
2022/07/11 03:27:29;;;;;;;0.20;0.10;;;;;;;;;;6127289;23;20013;-90
2022/07/11 03:29:58;;;;;;;0.20;0.10;;;;;;;;;;6104455;23;20088;-88
2022/07/11 03:32:24;;;;;;;0.20;0.10;;;;;;;;;;6103778;23;20455;-87
2022/07/11 03:37:35;;;;;;;0.20;0.10;;;;;;;;;;6151556;23;20453;-88
2022/07/11 03:40:01;;;;;;;0.20;0.10;;;;;;;;;;6126231;23;20027;-87
2022/07/11 03:42:28;;;;;;;0.20;0.10;;;;;;;;;;6127081;23;20012;-87
2022/07/11 03:44:54;;;;;;;0.20;0.10;;;;;;;;;;6101297;23;20020;-87
2022/07/11 03:47:20;;;;;;;0.20;0.10;;;;;;;;;;6100666;23;20338;-89
2022/07/11 03:49:47;;;;;;;0.20;0.10;;;;;;;;;;6127716;23;20064;-89
2022/07/11 03:52:13;;;;;;;0.20;0.10;;;;;;;;;;6127576;23;20009;-88
2022/07/11 03:54:39;;;;;;;0.20;0.10;;;;;;;;;;6124459;23;20012;-87
2022/07/11 03:57:06;;;;;;;0.20;0.10;;;;;;;;;;6125196;23;20012;-87
2022/07/11 03:59:32;;;;;;;0.20;0.10;;;;;;;;;;6099228;23;20051;-88
2022/07/11 04:01:58;;;;;;;0.20;0.10;;;;;;;;;;6143740;23;20302;-87
2022/07/11 04:04:24;;;;;;;0.20;0.10;;;;;;;;;;6093156;23;20148;-88
2022/07/11 04:06:50;;;;;;;0.20;0.10;;;;;;;;;;6100788;23;20366;-88
2022/07/11 04:09:16;;;;;;;0.20;0.10;;;;;;;;;;6100471;23;20017;-88
2022/07/11 04:11:42;;;;;;;0.20;0.10;;;;;;;;;;6099939;23;20013;-87
2022/07/11 04:14:09;;;;;;;0.20;0.10;;;;;;;;;;6103430;23;20017;-89
2022/07/11 04:16:35;;;;;;;0.20;0.10;;;;;;;;;;6127965;23;20017;-88
2022/07/11 04:19:01;;;;;;;0.20;0.10;;;;;;;;;;6100718;23;20350;-89
2022/07/11 04:21:27;;;;;;;0.20;0.10;;;;;;;;;;6128886;23;20052;-89
2022/07/11 04:23:53;;;;;;;0.50;0.28;;;;;;;;;;6102700;23;20020;-88
2022/07/11 04:26:19;;;;;;;0.20;0.10;;;;;;;;;;6103008;23;20322;-87
2022/07/11 04:28:45;;;;;;;0.20;0.10;;;;;;;;;;6101850;23;20115;-87
2022/07/11 04:31:11;;;;;;;0.20;0.10;;;;;;;;;;6130655;23;20120;-88
2022/07/11 04:33:38;;;;;;;0.20;0.10;;;;;;;;;;6104620;23;20024;-90
2022/07/11 04:36:04;;;;;;;0.20;0.10;;;;;;;;;;6130526;23;20020;-89
2022/07/11 04:38:30;;;;;;;0.20;0.10;;;;;;;;;;6128218;23;20024;-89
2022/07/11 04:40:57;;;;;;;0.20;0.10;;;;;;;;;;6127904;23;20025;-90
2022/07/11 04:43:29;;;;;;;0.20;0.10;;;;;;;;;;6127714;23;20245;-92
2022/07/11 04:45:55;;;;;;;;;;;;;;;;;;6129090;23;20020;-87
2022/07/11 04:48:21;;;;;;;0.20;0.10;;;;;;;;;;6128724;23;20260;-87
2022/07/11 04:50:47;;;;;;;0.20;0.10;;;;;;;;;;6123301;23;20024;-88
2022/07/11 04:53:13;;;;;;;0.20;0.10;;;;;;;;;;6101527;23;20088;-88
2022/07/11 04:55:45;;;;;;;0.20;0.10;;;;;;;;;;6123166;23;20331;-89
2022/07/11 04:58:12;;;;;;;0.20;0.10;;;;;;;;;;6126708;23;20075;-88
2022/07/11 05:00:38;;;;;;;0.20;0.10;;;;;;;;;;6127348;23;20063;-88
2022/07/11 05:03:04;;;;;;;0.20;0.10;;;;;;;;;;6153885;23;20028;-89
2022/07/11 05:05:31;;;;;;;0.20;0.10;;;;;;;;;;6103884;23;20017;-91
2022/07/11 05:07:57;;;;;;;0.20;0.10;;;;;;;;;;6104869;23;20021;-90
2022/07/11 05:10:24;;;;;;;0.20;0.10;;;;;;;;;;6104219;23;20067;-89
2022/07/11 05:12:52;;;;;;;0.20;0.10;;;;;;;;;;6130406;23;20023;-91
2022/07/11 05:15:18;;;;;;;0.20;0.10;;;;;;;;;;6132144;23;20100;-89
2022/07/11 05:17:44;;;;;;;0.20;0.10;;;;;;;;;;6108464;23;20454;-88
2022/07/11 05:20:21;;;;;;;0.20;0.00;;;;;;;;;;6103370;23;20021;-89
2022/07/11 05:22:47;;;;;;;0.20;0.10;;;;;;;;;;6107168;23;20028;-88
2022/07/11 05:25:13;;;;;;;0.20;0.10;;;;;;;;;;6156579;23;20214;-91
2022/07/11 05:27:42;;;;;;;0.20;0.10;;;;;;;;;;6107107;23;20024;-89
2022/07/11 05:30:13;;;;;;;0.20;0.10;;;;;;;;;;6132749;23;20021;-90
2022/07/11 05:32:40;;;;;;;0.20;0.10;;;;;;;;;;6131619;23;20329;-92
2022/07/11 05:35:06;;;;;;;0.20;0.10;;;;;;;;;;6129862;23;20017;-90
2022/07/11 05:37:33;;;;;;;0.20;0.10;;;;;;;;;;6127376;23;20520;-91
2022/07/11 05:40:00;;;;;;;0.20;0.10;;;;;;;;;;6122368;23;20020;-87
2022/07/11 05:42:28;;;;;;;0.20;0.10;;;;;;;;;;6100613;23;20028;-90
2022/07/11 05:44:55;;;;;;;0.20;0.10;;;;;;;;;;6123521;23;20020;-91
2022/07/11 05:47:31;;;;;;;0.20;0.10;;;;;;;;;;6151775;23;20349;-89
2022/07/11 05:49:58;;;;;;;0.20;0.10;;;;;;;;;;6128256;23;20020;-90
2022/07/11 05:52:24;;;;;;;0.20;0.10;;;;;;;;;;6102474;23;20013;-91
2022/07/11 05:54:52;;;;;;;0.20;0.10;;;;;;;;;;6102059;23;20021;-89
2022/07/11 05:57:24;;;;;;;0.20;0.10;;;;;;;;;;6123886;23;20012;-90
2022/07/11 05:59:53;;;;;;;0.20;0.10;;;;;;;;;;6126190;23;20013;-90
2022/07/11 06:02:22;;;;;;;0.20;0.10;;;;;;;;;;6098163;23;20028;-90
2022/07/11 06:04:49;;;;;;;0.20;0.10;;;;;;;;;;6117684;23;20021;-88
2022/07/11 06:08:40;;;;;;;0.20;0.00;;;;;;;;;;6122712;23;20021;-90
2022/07/11 06:10:03;;;;;;;0.20;0.00;;;;;;;;;;6124726;23;20055;-92
2022/07/11 06:12:33;;;;;;;0.20;0.10;;;;;;;;;;6119910;23;20013;-89
2022/07/11 06:15:02;;;;;;;0.20;0.10;;;;;;;;;;6119818;23;20017;-87
2022/07/11 06:17:28;;;;;;;0.20;0.10;;;;;;;;;;6095836;23;20013;-90
2022/07/11 06:20:00;;;;;;;;;;;;;;;;;;6122692;23;20087;-89
2022/07/11 06:22:27;;;;;;;0.20;0.10;;;;;;;;;;6120925;23;20423;-86
2022/07/11 06:24:53;;;;;;;0.20;0.10;;;;;;;;;;6089035;23;20111;-90
2022/07/11 06:27:25;;;;;;;0.20;0.10;;;;;;;;;;6122867;23;20045;-89
2022/07/11 06:29:51;;;;;;;0.20;0.10;;;;;;;;;;6119028;23;20641;-90
2022/07/11 06:32:17;;;;;;;0.20;0.10;;;;;;;;;;6124879;23;20020;-90
2022/07/11 06:34:49;;;;;;;0.20;0.10;;;;;;;;;;6123561;23;20009;-91
2022/07/11 06:37:15;;;;;;;0.20;0.10;;;;;;;;;;6099357;23;20020;-88
2022/07/11 06:39:41;;;;;;;0.20;0.10;;;;;;;;;;6093178;23;20245;-89
2022/07/11 06:42:07;;;;;;;0.20;0.10;;;;;;;;;;6123069;23;20017;-91
2022/07/11 06:44:34;;;;;;;0.20;0.10;;;;;;;;;;6118531;23;20131;-88
2022/07/11 06:47:04;;;;;;;0.20;0.10;;;;;;;;;;6122947;23;20048;-91
2022/07/11 06:49:33;;;;;;;0.20;0.10;;;;;;;;;;6123272;23;20020;-90
2022/07/11 06:51:59;;;;;;;0.20;0.10;;;;;;;;;;6103892;23;20017;-88
2022/07/11 06:54:26;;;;;;;0.20;0.10;;;;;;;;;;6123420;23;20020;-91
2022/07/11 06:56:52;;;;;;;0.20;0.10;;;;;;;;;;6098582;23;20025;-90
2022/07/11 06:59:21;;;;;;;0.20;0.10;;;;;;;;;;6121985;23;20019;-89
2022/07/11 07:01:48;;;;;;;0.20;0.10;;;;;;;;;;6098046;23;20067;-87
2022/07/11 07:04:17;;;;;;;0.20;0.10;;;;;;;;;;6124221;23;20468;-94
2022/07/11 07:06:55;;;;;;;0.20;0.10;;;;;;;;;;6124626;23;20528;-91
2022/07/11 07:09:21;;;;;;;0.20;0.00;;;;;;;;;;6122478;23;20624;-88
2022/07/11 07:11:50;;;;;;;0.20;0.10;;;;;;;;;;6121340;23;20048;-89
2022/07/11 07:14:19;;;;;;;0.20;0.10;;;;;;;;;;6123119;23;20107;-91
2022/07/11 07:16:45;;;;;;;0.20;0.10;;;;;;;;;;6101616;23;20021;-92
2022/07/11 07:19:11;;;;;;;0.20;0.10;;;;;;;;;;6130851;23;20068;-87
2022/07/11 07:21:37;;;;;;;0.20;0.10;;;;;;;;;;6101085;23;20472;-92
2022/07/11 07:24:57;;;;;;;0.20;0.10;;;;;;;;;;6124901;23;20463;-91
2022/07/11 07:27:32;;;;;;;0.20;0.10;;;;;;;;;;6058892;23;20023;-91
2022/07/11 07:30:03;;;;;;;0.20;0.10;;;;;;;;;;6129241;23;20048;-90
2022/07/11 07:39:21;;;;;;;0.20;0.10;;;;;;;;;;6113872;23;20021;-89
2022/07/11 07:42:27;;;;;;;0.20;0.10;;;;;;;;;;6030960;23;20087;-88
2022/07/11 07:45:21;;;;;;;0.20;0.10;;;;;;;;;;6050665;23;20077;-89
2022/07/11 07:51:24;;;;;;;0.20;0.10;;;;;;;;;;6019932;23;20022;-88
2022/07/11 07:54:21;;;;;;;;;;;;;;;;;;;;;
2022/07/11 08:04:00;;;;;;;;;;;;;;;;;;;;;
2022/07/11 08:07:08;;;;;;;0.20;0.10;;;;;;;;;;6118564;23;20080;-92
2022/07/11 08:16:54;;;;;;;;;;;;;;;;;;;;;
2022/07/11 08:53:16;;;;;;;0.20;0.10;;;;;;;;;;6104786;23;20037;-88
2022/07/11 08:56:17;;;;;;;;;;;;;;;;;;;;;
2022/07/11 09:56:52;;;;;;;;;;;;;;;;;;;;;
2022/07/11 10:03:34;;;;;;;0.20;0.10;;;;;;;;;;5973337;24;20381;-91
2022/07/11 10:06:36;;;;;;;0.20;0.10;;;;;;;;;;5956695;24;20018;-88
2022/07/11 10:09:19;;;;;;;0.20;0.10;;;;;;;;;;5947439;23;20020;-87
2022/07/11 12:58:23;;;;;;;;;;;;;;;;;;;;;
2022/07/11 13:46:19;;;;;;;;;;;;;;;;;;;;;
2022/07/11 13:56:06;;;;;;;0.20;0.10;;;;;;;;;;5947200;24;20336;-88
2022/07/11 14:14:32;;;;;;;0.20;0.10;;;;;;;;;;6131671;23;20033;-89
2022/07/11 14:42:37;;;;;;;0.20;0.10;;;;;;;;;;6104835;23;20321;-89
2022/07/11 14:45:19;;;;;;;0.20;0.10;;;;;;;;;;6096771;23;20381;-89
2022/07/11 14:48:02;;;;;;;0.20;0.10;;;;;;;;;;6077798;23;20026;-91
2022/07/11 14:54:28;;;;;;;0.20;0.10;;;;;;;;;;6010551;23;20481;-87
2022/07/11 14:57:31;;;;;;;0.20;0.10;;;;;;;;;;6068959;23;20078;-91
2022/07/11 15:00:21;;;;;;;0.20;0.10;;;;;;;;;;6064519;23;20029;-89
2022/07/11 15:05:54;;;;;;;0.20;0.10;;;;;;;;;;6090933;23;20486;-89
2022/07/11 15:14:29;;;;;;;0.20;0.10;;;;;;;;;;6054436;23;20086;-88
2022/07/11 15:16:55;;;;;;;0.20;0.10;;;;;;;;;;6032459;23;20029;-90
2022/07/11 15:19:49;;;;;;;0.20;0.10;;;;;;;;;;6005218;23;20321;-89
2022/07/11 15:22:23;;;;;;;0.20;0.10;;;;;;;;;;6001700;23;20037;-86
2022/07/11 15:24:55;;;;;;;0.20;0.10;;;;;;;;;;6006984;23;20018;-89
2022/07/11 15:28:06;;;;;;;;;;;;;;;;;;;;;
2022/07/11 16:22:14;;;;;;;0.20;0.10;;;;;;;;;;6115147;23;20032;-89
2022/07/11 16:24:26;;;;;;;0.20;0.10;;;;;;;;;;6063546;23;20026;-87
2022/07/11 16:34:20;;;;;;;0.20;0.00;;;;;;;;;;5910220;24;20021;-89
2022/07/11 16:37:22;;;;;;;0.20;0.10;;;;;;;;;;5875394;24;20613;-88
2022/07/11 16:43:39;;;;;;;;;;;;;;;;;;;;;
2022/07/11 16:46:36;;;;;;;0.20;0.10;;;;;;;;;;6077639;23;20175;-89
2022/07/11 16:49:04;;;;;;;0.20;0.10;;;;;;;;;;6110381;23;20070;-89
2022/07/11 16:51:32;;;;;;;0.20;0.10;;;;;;;;;;6062683;23;20022;-89
2022/07/11 16:54:33;;;;;;;0.20;0.10;;;;;;;;;;6059926;23;20453;-90
2022/07/11 16:57:22;;;;;;;0.20;0.10;;;;;;;;;;6054832;23;20014;-88
2022/07/11 17:00:11;;;;;;;0.20;0.10;;;;;;;;;;6057386;23;20018;-88
2022/07/11 17:02:39;;;;;;;0.20;0.10;;;;;;;;;;6062371;23;20121;-87
2022/07/11 17:05:16;;;;;;;0.20;0.10;;;;;;;;;;6067441;23;20036;-88
2022/07/11 17:10:44;;;;;;;0.20;0.10;;;;;;;;;;6068017;23;20491;-90
2022/07/11 17:13:10;;;;;;;0.20;0.10;;;;;;;;;;6064629;23;20014;-89
2022/07/11 17:15:39;;;;;;;0.20;0.10;;;;;;;;;;6088761;23;20401;-87
2022/07/11 17:29:57;;;;;;;0.20;0.10;;;;;;;;;;6024591;23;20026;-87
2022/07/11 17:32:24;;;;;;;0.20;0.10;;;;;;;;;;6030559;23;20264;-87
2022/07/11 17:34:55;;;;;;;0.20;0.10;;;;;;;;;;6063935;23;20084;-90
2022/07/11 17:37:22;;;;;;;0.20;0.10;;;;;;;;;;6065160;23;20021;-91
2022/07/11 17:39:50;;;;;;;0.20;0.10;;;;;;;;;;6065496;23;20530;-90
2022/07/11 17:42:19;;;;;;;0.20;0.10;;;;;;;;;;6066649;23;20462;-88
2022/07/11 17:44:51;;;;;;;0.20;0.10;;;;;;;;;;6042849;23;20093;-93
2022/07/11 17:47:17;;;;;;;0.20;0.10;;;;;;;;;;6065586;23;20018;-89
2022/07/11 17:49:43;;;;;;;0.20;0.10;;;;;;;;;;6065715;23;20014;-89
2022/07/11 17:52:10;;;;;;;0.20;0.10;;;;;;;;;;6065911;23;20018;-90
2022/07/11 17:54:45;;;;;;;0.20;0.10;;;;;;;;;;6067879;23;20506;-91
2022/07/11 17:57:13;;;;;;;0.20;0.10;;;;;;;;;;6063658;23;20014;-91
2022/07/11 17:59:40;;;;;;;0.20;0.10;;;;;;;;;;6063479;23;20014;-91
2022/07/11 18:02:10;;;;;;;0.20;0.10;;;;;;;;;;6062281;23;20018;-89
2022/07/11 18:04:36;;;;;;;0.20;0.10;;;;;;;;;;6062601;23;20029;-88
2022/07/11 18:10:20;;;;;;;0.20;0.10;;;;;;;;;;6088341;23;20226;-93
2022/07/11 18:13:39;;;;;;;0.20;0.10;;;;;;;;;;6063312;23;20017;-93
2022/07/11 18:44:38;;;;;;;0.20;0.10;;;;;;;;;;5899913;24;20032;-93
2022/07/11 19:44:30;;;;;;;0.20;0.10;;;;;;;;;;6054905;23;1128027;-88
2022/07/11 19:47:00;;;;;;;0.20;0.10;;;;;;;;;;6056882;23;20655;-90
2022/07/11 19:49:26;;;;;;;0.20;0.10;;;;;;;;;;6036101;23;20473;-89
2022/07/11 20:26:29;;;;;;;0.20;0.10;;;;;;;;;;6089463;23;20034;-82
2022/07/11 20:28:58;;;;;;;0.20;0.10;;;;;;;;;;6011337;23;20023;-87
2022/07/11 20:31:25;;;;;;;0.20;0.10;;;;;;;;;;6015041;23;20021;-86
2022/07/11 20:33:53;;;;;;;0.20;0.10;;;;;;;;;;6034450;23;20018;-84
2022/07/11 20:36:21;;;;;;;0.20;0.10;;;;;;;;;;6013781;23;20014;-85
